createdAt,value
2022-08-26T00:04:40.293Z,69.25
2022-08-26T00:13:04.529Z,69.30
2022-08-26T00:21:27.803Z,69.63
2022-08-26T00:29:52.156Z,69.69
2022-08-26T00:38:17.035Z,69.64
2022-08-26T00:46:46.855Z,70.27
2022-08-26T00:55:20.415Z,70.40
2022-08-26T01:03:45.511Z,70.22
2022-08-26T01:12:08.498Z,70.40
2022-08-26T01:20:48.362Z,70.27
2022-08-26T01:29:19.253Z,70.41
2022-08-26T01:37:43.078Z,70.58
2022-08-26T01:46:06.749Z,70.60
2022-08-26T01:54:33.834Z,70.60
2022-08-26T02:03:17.233Z,70.67
2022-08-26T02:11:40.554Z,70.55
2022-08-26T02:20:04.437Z,70.58
2022-08-26T02:28:34.350Z,70.49
2022-08-26T02:37:03.991Z,70.67
2022-08-26T02:45:29.001Z,70.68
2022-08-26T02:53:52.441Z,70.66
2022-08-26T03:02:15.595Z,71.03
2022-08-26T03:10:39.406Z,71.28
2022-08-26T03:19:05.633Z,71.14
2022-08-26T03:27:29.380Z,71.34
2022-08-26T03:35:55.979Z,71.32
2022-08-26T03:44:19.684Z,71.29
2022-08-26T03:52:44.075Z,71.70
2022-08-26T04:01:07.281Z,71.52
2022-08-26T04:09:30.464Z,71.55
2022-08-26T04:17:58.384Z,71.20
2022-08-26T04:26:23.258Z,71.30
2022-08-26T04:34:46.251Z,71.65
2022-08-26T04:43:09.774Z,71.93
2022-08-26T04:51:33.430Z,71.38
2022-08-26T04:59:56.276Z,71.13
2022-08-26T05:08:21.468Z,71.21
2022-08-26T05:16:44.694Z,71.21
2022-08-26T05:25:10.644Z,71.39
2022-08-26T05:33:33.480Z,71.43
2022-08-26T05:41:56.713Z,70.88
2022-08-26T05:50:23.345Z,69.06
2022-08-26T05:58:46.792Z,67.85
2022-08-26T06:07:11.483Z,66.18
2022-08-26T06:15:38.997Z,65.41
2022-08-26T06:24:29.528Z,63.14
2022-08-26T06:32:53.397Z,62.58
2022-08-26T06:41:18.402Z,62.76
2022-08-26T06:49:42.106Z,62.61
2022-08-26T06:58:09.611Z,61.91
2022-08-26T07:06:39.158Z,61.04
2022-08-26T07:15:02.735Z,61.21
2022-08-26T07:23:25.712Z,60.54
2022-08-26T07:31:48.898Z,59.96
2022-08-26T07:40:12.030Z,59.22
2022-08-26T07:48:38.069Z,58.95
2022-08-26T07:57:01.858Z,59.14
2022-08-26T08:05:33.438Z,58.15
2022-08-26T08:13:57.415Z,58.14
2022-08-26T08:22:24.039Z,57.65
2022-08-26T08:30:47.871Z,57.71
2022-08-26T08:39:12.042Z,57.36
2022-08-26T08:47:57.289Z,57.31
2022-08-26T08:56:25.986Z,57.32
2022-08-26T09:05:07.776Z,57.09
2022-08-26T09:13:31.752Z,56.66
2022-08-26T09:22:01.624Z,56.57
2022-08-26T09:30:36.031Z,55.58
2022-08-26T09:38:59.793Z,57.79
2022-08-26T09:47:46.142Z,57.70
2022-08-26T09:56:27.559Z,59.18
2022-08-26T10:04:56.701Z,59.07
2022-08-26T10:13:34.207Z,57.78
2022-08-26T10:22:05.377Z,57.79
2022-08-26T10:30:45.805Z,57.38
2022-08-26T10:39:19.087Z,57.19
2022-08-26T10:48:07.290Z,57.26
2022-08-26T10:56:48.703Z,56.25
2022-08-26T11:05:24.922Z,56.25
2022-08-26T11:13:57.712Z,55.54
2022-08-26T11:22:29.495Z,55.26
2022-08-26T11:30:57.523Z,55.34
2022-08-26T11:39:53.995Z,55.49
2022-08-26T11:48:40.175Z,54.74
2022-08-26T11:57:11.788Z,54.28
2022-08-26T12:05:42.559Z,52.57
2022-08-26T12:14:34.962Z,50.00
2022-08-26T12:23:02.586Z,48.83
2022-08-26T12:31:36.769Z,51.85
2022-08-26T12:40:33.582Z,52.31
2022-08-26T12:49:01.423Z,52.46
2022-08-26T12:57:37.335Z,52.76
2022-08-26T13:06:31.586Z,52.59
2022-08-26T13:14:55.557Z,52.62
2022-08-26T13:23:21.792Z,52.22
2022-08-26T13:31:46.299Z,51.07
2022-08-26T13:40:11.601Z,48.67
2022-08-26T13:48:35.407Z,47.20
2022-08-26T13:57:00.394Z,47.03
2022-08-26T14:05:23.280Z,47.67
2022-08-26T14:13:46.165Z,47.54
2022-08-26T14:22:08.927Z,46.59
2022-08-26T14:30:32.204Z,46.32
2022-08-26T14:39:10.122Z,46.49
2022-08-26T14:47:33.341Z,46.47
2022-08-26T14:55:56.819Z,46.30
2022-08-26T15:04:20.589Z,46.50
2022-08-26T15:12:44.930Z,46.65
2022-08-26T15:21:08.501Z,47.43
2022-08-26T15:29:32.843Z,46.95
2022-08-26T15:37:59.885Z,47.49
2022-08-26T15:46:22.942Z,47.92
2022-08-26T15:54:45.929Z,48.09
2022-08-26T16:03:08.815Z,48.50
2022-08-26T16:11:31.649Z,48.78
2022-08-26T16:19:56.978Z,48.66
2022-08-26T16:28:26.151Z,48.91
2022-08-26T16:36:49.333Z,49.15
2022-08-26T16:45:12.312Z,49.63
2022-08-26T16:53:35.203Z,49.92
2022-08-26T17:01:58.346Z,50.38
2022-08-26T17:10:28.808Z,50.98
2022-08-26T17:18:51.724Z,51.67
2022-08-26T17:27:14.911Z,52.45
2022-08-26T17:35:37.839Z,53.64
2022-08-26T17:44:00.826Z,54.66
2022-08-26T17:52:24.171Z,55.59
2022-08-26T18:00:50.773Z,56.60
2022-08-26T18:09:13.749Z,57.45
2022-08-26T18:17:39.537Z,58.13
2022-08-26T18:26:02.612Z,59.02
2022-08-26T18:34:25.479Z,59.48
2022-08-26T18:42:54.980Z,60.24
2022-08-26T18:51:22.287Z,60.43
2022-08-26T18:59:45.789Z,60.79
2022-08-26T19:08:09.568Z,61.40
2022-08-26T19:16:34.307Z,61.93
2022-08-26T19:24:57.626Z,62.23
2022-08-26T19:33:21.852Z,62.16
2022-08-26T19:41:45.660Z,62.28
2022-08-26T19:50:12.623Z,62.55
2022-08-26T19:58:35.514Z,62.93
2022-08-26T20:07:00.989Z,63.28
2022-08-26T20:15:24.473Z,63.47
2022-08-26T20:23:52.300Z,63.98
2022-08-26T20:32:15.287Z,64.15
2022-08-26T20:40:39.483Z,64.76
2022-08-26T20:49:04.378Z,64.77
2022-08-26T20:57:29.259Z,65.07
2022-08-26T21:05:52.393Z,65.24
2022-08-26T21:14:17.248Z,65.31
2022-08-26T21:22:44.339Z,65.43
2022-08-26T21:31:12.080Z,65.49
2022-08-26T21:39:34.960Z,65.49
2022-08-26T21:47:57.791Z,65.70
2022-08-26T21:56:23.791Z,65.88
2022-08-26T22:04:48.956Z,65.94
2022-08-26T22:13:12.074Z,65.79
2022-08-26T22:21:39.258Z,65.90
2022-08-26T22:30:02.701Z,66.31
2022-08-26T22:38:26.116Z,66.09
2022-08-26T22:46:54.279Z,66.22
2022-08-26T22:55:17.949Z,65.79
2022-08-26T23:03:41.558Z,65.97
2022-08-26T23:12:04.654Z,66.03
2022-08-26T23:20:29.205Z,66.21
2022-08-26T23:28:53.818Z,66.25
2022-08-26T23:37:17.399Z,66.39
2022-08-26T23:45:41.600Z,66.57
2022-08-26T23:54:04.583Z,66.89
